Terminal Aerodrome Forecast
Issued by NWS Riverton, WY

Home | Current Version | Previous Version | Text Only | Print | Product List | Glossary On
Versions: 1 2 3 4 5 6 7 8 9 10 11 12
000
FTUS45 KRIW 291120
TAFRIW
TAF
KRIW 291120Z 2912/3012 32008KT P6SM SKC
     FM291400 VRB05KT P6SM SKC
     FM291800 VRB05KT P6SM SCT090
     FM300000 VRB05KT P6SM BKN090=

USA.gov is the U.S. government's official web portal to all federal, state and local government web resources and services.